Portada
METAR-TAF:

METAR-TAF

Aeroports :

Sankt Moritz, Suïssa

latitud: 46-32-03N, longitud: 9-53-03E, altitud: 1707 m

Observació

L'informe es va fer fa 24 minuts, a les 15:50 UTC
Vent 1 kt amb direcció variable
Temperatura -10°C
Humitat 61%
Pressió 1021 hPa
Visibilitat 10 km o més
sense núvols per sota de 1500 mi sense presència de cumulonimbus.

METAR: LSZS 101550Z VRB01KT CAVOK M10/M16 Q1021 RMK T TL170

Hora: 17:14 (16:14 UTC)

Pronòstic

L'informe es va fer fa 1 hora i 49 minuts, a les 14:25 UTC
Pronòstic vàlid del 10 a les 15 UTC al 10 a les 24 UTC
Vent 11 kt del Nord/Nord-Est
Visibilitat 10 km o més
sense núvols per sota de 1500 mi sense presència de cumulonimbus.
Evolucionant progressivament
l' 10 a les 16 UTC al 10 a les 19 UTC
Vent 3 kt amb direcció variable

TAF: LSZS 101425Z 1015/1024 03011KT CAVOK TXM03/1013Z BECMG 1016/1019 VRB03KT

Observacions i pronòstics meteorològics de més de 4000 aeroports (METAR i TAF).

Les estacions disponibles són els punts grocs i vermells al mapa.

Posi el ratolí al punt desitjat per veure el nom de l'estació.

Feu clic per veure les observacions i els pronòstics meteorològics.

Per canviar el mapa: feu clic els botons verds amb una creu de color negre per apropar; al botó verd amb un guió per allunyar la imatge; o en les fletxes verdes per a mapes adjacents.


METAR-TAF: